METAR Data
IDs: Format: Raw Decoded Include TAF

Data at: 0827 UTC 07 Dec 2021

KEVB 070247Z 00000KT 10SM FEW050 18/18 A3008 RMK LAST
KEVB 070147Z 00000KT 10SM FEW050 19/18 A3008
KEVB 070047Z 00000KT 10SM BKN050 21/19 A3007
KEVB 062347Z 00000KT 10SM BKN050 21/19 A3007
KEVB 062247Z 10005KT 10SM FEW050 23/19 A3004
KEVB 062147Z 11006KT 10SM FEW030 23/20 A3003
KEVB 062047Z 29005KT 10SM SCT035 26/17 A3002
KEVB 061947Z 23006KT 10SM SCT030 26/17 A3003
KEVB 061847Z 23010KT 10SM SCT030 27/17 A3004
KEVB 061747Z 22007KT 10SM SCT030 27/18 A3006
KEVB 061650Z 23007KT 10SM SCT029 26/18 A3009
KEVB 061547Z 23004KT 10SM CLR 24/20 A3013
KEVB 061447Z 00000KT 10SM CLR 21/20 A3014
KEVB 061347Z 00000KT 10SM FEW020 18/18 A3014
KEVB 061335Z 00000KT 3SM BR FEW020 17/17 A3014
KEVB 061247Z 00000KT 1/4SM FG OVC002 15/15 A3014
KEVB 061147Z COR 00000KT 1/4SM FG OVC002 15/15 A3012 RMK FIRST
KEVB 060247Z 12004KT 10SM OVC060 20/18 A3014 RMK LAST
KEVB 060147Z 09006KT 10SM OVC055 20/17 A3013
KEVB 060047Z 11006KT 10SM OVC055 21/17 A3012
KEVB 052347Z 11006KT 10SM OVC055 21/16 A3012
KEVB 052247Z 11006KT 10SM OVC050 21/17 A3011
KEVB 052147Z 11009KT 10SM OVC050 22/17 A3011
KEVB 052047Z 13009KT 10SM FEW050 24/15 A3011